Time;durP1;ratioP1;P1;durP2;ratioP2;P2;SDS_P1;SDS_P2;PMS_P1;PMS_P2;Temp;Humidity;BMP_temperature;BMP_pressure;BME280_temperature;BME280_humidity;BME280_pressure;Samples;Min_cycle;Max_cycle;Signal;HPM_P1;HPM_P2
2022/10/18 00:02:11;;;;;;;14.88;8.90;;;;;;;15.75;85.67;102470.19;5028811;28;20037;-72
2022/10/18 00:04:36;;;;;;;12.77;8.80;;;;;;;15.76;85.67;102471.94;5032386;28;20059;-72
2022/10/18 00:07:02;;;;;;;12.57;8.75;;;;;;;15.78;85.81;102464.13;5031869;28;20063;-71
2022/10/18 00:09:27;;;;;;;10.85;8.52;;;;;;;15.76;85.50;102468.25;5033230;28;20100;-71
2022/10/18 00:11:53;;;;;;;10.45;9.20;;;;;;;15.76;85.80;102460.72;5032839;28;20029;-72
2022/10/18 00:14:19;;;;;;;13.13;9.32;;;;;;;15.76;85.70;102471.06;5029535;28;20053;-71
2022/10/18 00:16:44;;;;;;;14.70;9.15;;;;;;;15.74;85.66;102465.72;5018795;28;20022;-72
2022/10/18 00:19:10;;;;;;;10.07;8.90;;;;;;;15.76;85.56;102457.94;5012321;28;20101;-72
2022/10/18 00:21:35;;;;;;;11.52;9.43;;;;;;;15.75;85.65;102470.19;5028576;28;20030;-72
2022/10/18 00:24:00;;;;;;;10.98;9.10;;;;;;;15.76;85.66;102466.34;5030864;28;20044;-73
2022/10/18 00:26:29;;;;;;;12.90;9.00;;;;;;;15.74;85.43;102468.50;5032283;28;20036;-72
2022/10/18 00:29:01;;;;;;;9.85;8.85;;;;;;;15.76;85.62;102474.72;5031353;28;20057;-72
2022/10/18 00:31:35;;;;;;;14.50;9.25;;;;;;;15.75;85.54;102470.19;5031323;28;20037;-72
2022/10/18 00:34:15;;;;;;;10.38;9.32;;;;;;;15.74;85.76;102457.31;5030397;28;20044;-72
2022/10/18 00:36:41;;;;;;;10.85;9.63;;;;;;;15.73;85.87;102450.03;5033323;28;20477;-72
2022/10/18 00:39:08;;;;;;;9.82;8.82;;;;;;;15.70;85.70;102462.56;5031911;28;20108;-72
2022/10/18 00:41:36;;;;;;;10.45;9.35;;;;;;;15.72;85.75;102465.13;5031329;28;20041;-72
2022/10/18 00:44:06;;;;;;;11.93;8.90;;;;;;;15.74;85.80;102462.91;5029451;28;20473;-72
2022/10/18 00:46:43;;;;;;;11.27;8.82;;;;;;;15.74;85.79;102462.91;5031901;28;20037;-72
2022/10/18 00:49:22;;;;;;;10.15;8.43;;;;;;;15.73;85.83;102464.03;5030650;28;20079;-72
2022/10/18 00:51:55;;;;;;;15.88;9.85;;;;;;;15.71;85.89;102469.00;5031281;28;20424;-73
2022/10/18 00:54:22;;;;;;;9.88;8.68;;;;;;;15.69;85.78;102474.00;5029294;28;20369;-72
2022/10/18 00:56:47;;;;;;;10.02;8.40;;;;;;;15.70;85.80;102476.56;5032609;28;20106;-72
2022/10/18 00:59:15;;;;;;;11.70;8.93;;;;;;;15.69;85.79;102465.63;5021602;28;20489;-72
2022/10/18 01:01:40;;;;;;;11.38;8.93;;;;;;;15.71;85.68;102475.44;5016203;28;20036;-71
2022/10/18 01:04:06;;;;;;;10.45;8.20;;;;;;;15.70;85.42;102472.91;5026366;28;20033;-71
2022/10/18 01:06:31;;;;;;;10.25;9.15;;;;;;;15.66;85.58;102475.34;5030295;28;20041;-71
2022/10/18 01:09:01;;;;;;;10.93;8.73;;;;;;;15.67;85.86;102479.84;5029706;28;20037;-70
2022/10/18 01:11:32;;;;;;;9.80;8.40;;;;;;;15.67;85.51;102493.00;5029710;28;20025;-71
2022/10/18 01:14:14;;;;;;;12.52;8.68;;;;;;;15.67;85.81;102495.78;5029705;28;20033;-68
2022/10/18 01:17:07;;;;;;;9.57;8.57;;;;;;;15.69;85.76;102488.00;5030726;28;20025;-71
2022/10/18 01:20:06;;;;;;;13.32;9.25;;;;;;;15.68;85.56;102483.53;5028400;28;20063;-71
2022/10/18 01:22:31;;;;;;;10.70;8.98;;;;;;;15.63;85.68;102486.16;5020443;28;20502;-71
2022/10/18 01:25:13;;;;;;;10.05;8.95;;;;;;;15.65;85.71;102484.00;5031499;28;20144;-71
2022/10/18 01:28:08;;;;;;;12.73;8.90;;;;;;;15.70;85.85;102489.69;5030855;28;20033;-71
2022/10/18 01:30:39;;;;;;;15.68;9.13;;;;;;;15.67;85.53;102484.59;5030243;28;20036;-71
2022/10/18 01:33:17;;;;;;;11.38;9.23;;;;;;;15.64;85.92;102485.03;5028924;28;20075;-71
2022/10/18 01:35:49;;;;;;;11.02;8.85;;;;;;;15.62;85.75;102482.50;5029767;28;20021;-71
2022/10/18 01:38:18;;;;;;;11.75;9.07;;;;;;;15.61;85.72;102486.41;5030958;28;20032;-70
2022/10/18 01:40:47;;;;;;;10.77;8.13;;;;;;;15.60;85.65;102493.13;5031135;28;20021;-71
2022/10/18 01:43:14;;;;;;;12.52;9.00;;;;;;;15.61;85.82;102488.38;5030289;28;20388;-71
2022/10/18 01:45:40;;;;;;;10.00;9.00;;;;;;;15.62;85.66;102492.84;5029256;28;20025;-71
2022/10/18 01:48:06;;;;;;;12.07;9.10;;;;;;;15.61;85.54;102491.16;5029362;28;20074;-71
2022/10/18 01:50:33;;;;;;;11.10;8.85;;;;;;;15.59;85.62;102493.34;5029489;28;20104;-71
2022/10/18 01:52:59;;;;;;;11.70;8.43;;;;;;;15.58;85.46;102483.25;5029872;28;20042;-71
2022/10/18 01:55:52;;;;;;;11.30;8.25;;;;;;;15.59;85.68;102482.16;5030005;28;20053;-72
2022/10/18 01:58:45;;;;;;;11.48;8.00;;;;;;;15.63;85.64;102488.94;5029061;28;20021;-71
2022/10/18 02:01:17;;;;;;;;;;;;;;;15.72;85.42;102493.13;5031158;28;20034;-71
2022/10/18 02:03:45;;;;;;;10.20;8.48;;;;;;;15.57;85.32;102488.00;5029521;28;19929;-71
2022/10/18 02:06:21;;;;;;;11.02;8.95;;;;;;;15.59;85.31;102487.75;5030687;28;20037;-71
2022/10/18 02:09:08;;;;;;;10.18;9.15;;;;;;;15.57;85.51;102490.81;5030143;28;20417;-72
2022/10/18 02:11:35;;;;;;;13.45;9.82;;;;;;;15.54;85.36;102496.88;5028565;28;20033;-71
2022/10/18 02:14:13;;;;;;;11.40;10.18;;;;;;;15.56;85.36;102489.13;5031170;28;20039;-71
2022/10/18 02:16:40;;;;;;;9.98;8.95;;;;;;;15.51;85.51;102482.53;5033889;28;20040;-71
2022/10/18 02:19:09;;;;;;;11.95;9.23;;;;;;;15.51;85.34;102482.53;5033929;28;20037;-72
2022/10/18 02:21:39;;;;;;;15.15;8.57;;;;;;;15.51;85.63;102479.75;5031330;28;20116;-71
2022/10/18 02:24:06;;;;;;;9.95;8.95;;;;;;;15.49;85.35;102484.75;5034614;28;20030;-72
2022/10/18 02:26:31;;;;;;;9.25;8.35;;;;;;;15.49;85.35;102487.53;5032434;28;20472;-72
2022/10/18 02:28:56;;;;;;;10.60;8.45;;;;;;;15.50;85.02;102483.63;5034288;28;20060;-71
2022/10/18 02:31:29;;;;;;;10.20;8.80;;;;;;;15.45;85.16;102492.78;5029076;28;20069;-71
2022/10/18 02:34:11;;;;;;;12.02;9.05;;;;;;;15.48;85.08;102492.25;5013571;28;20125;-72
2022/10/18 02:36:42;;;;;;;9.40;8.45;;;;;;;15.44;84.81;102491.94;5014791;28;20037;-72
2022/10/18 02:39:13;;;;;;;11.27;8.32;;;;;;;15.41;84.93;102498.00;5027535;28;20216;-71
2022/10/18 02:41:39;;;;;;;10.73;8.03;;;;;;;15.41;84.61;102489.63;5017927;28;20197;-71
2022/10/18 02:44:04;;;;;;;10.95;8.48;;;;;;;15.37;84.68;102499.59;5032245;28;20053;-72
2022/10/18 02:46:30;;;;;;;9.55;8.65;;;;;;;15.39;84.83;102496.53;5033519;28;20033;-72
2022/10/18 02:48:55;;;;;;;10.63;8.50;;;;;;;15.41;84.60;102503.63;5032053;28;20396;-71
2022/10/18 02:51:20;;;;;;;9.52;8.57;;;;;;;15.38;84.73;102501.28;5032382;28;20120;-72
2022/10/18 02:53:46;;;;;;;11.65;8.98;;;;;;;15.38;84.77;102504.09;5033203;28;20040;-72
2022/10/18 02:56:11;;;;;;;10.18;9.07;;;;;;;15.40;85.01;102501.03;5033147;28;20052;-71
2022/10/18 02:58:36;;;;;;;11.50;8.85;;;;;;;15.41;84.84;102497.16;5030993;28;20668;-71
2022/10/18 03:01:01;;;;;;;14.77;9.70;;;;;;;15.40;84.94;102501.03;5031788;28;20029;-72
2022/10/18 03:03:27;;;;;;;10.98;9.05;;;;;;;15.38;85.07;102492.91;5030931;28;20052;-72
2022/10/18 03:05:52;;;;;;;10.52;9.43;;;;;;;15.39;85.17;102489.00;5031449;28;20030;-72
2022/10/18 03:08:18;;;;;;;10.80;9.70;;;;;;;15.40;85.18;102496.28;5021053;28;20033;-71
2022/10/18 03:10:45;;;;;;;11.55;9.70;;;;;;;15.39;85.31;102489.00;5033737;28;20029;-71
2022/10/18 03:13:10;;;;;;;13.55;10.50;;;;;;;15.38;85.49;102501.28;5033674;28;20029;-71
2022/10/18 03:15:35;;;;;;;13.25;9.82;;;;;;;15.39;85.46;102504.94;5032900;28;20053;-72
2022/10/18 03:18:01;;;;;;;16.85;10.38;;;;;;;15.38;85.44;102498.50;5032930;28;20399;-72
2022/10/18 03:20:26;;;;;;;11.52;10.05;;;;;;;15.37;85.41;102493.16;5027298;28;20029;-72
2022/10/18 03:22:51;;;;;;;14.57;10.55;;;;;;;15.38;85.53;102497.66;5031220;28;20033;-72
2022/10/18 03:25:17;;;;;;;13.70;10.07;;;;;;;15.42;85.42;102501.66;5031745;28;20048;-72
2022/10/18 03:27:42;;;;;;;11.95;10.77;;;;;;;15.40;85.40;102503.84;5034628;28;20518;-72
2022/10/18 03:30:10;;;;;;;12.82;11.45;;;;;;;15.42;85.53;102510.91;5033690;28;20096;-72
2022/10/18 03:32:36;;;;;;;12.25;10.55;;;;;;;15.41;85.67;102513.97;5034718;28;20025;-72
2022/10/18 03:35:01;;;;;;;12.43;11.13;;;;;;;15.41;85.73;102508.38;5034313;28;20034;-72
2022/10/18 03:37:26;;;;;;;13.35;11.98;;;;;;;15.41;85.75;102503.63;5029194;28;20056;-72
2022/10/18 03:39:51;;;;;;;13.20;11.90;;;;;;;15.40;85.70;102499.09;5034187;28;20055;-72
2022/10/18 03:42:17;;;;;;;16.77;12.50;;;;;;;15.40;85.77;102507.47;5033321;28;20083;-72
2022/10/18 03:44:42;;;;;;;14.27;12.60;;;;;;;15.41;85.90;102508.38;5026351;28;20042;-72
2022/10/18 03:47:07;;;;;;;15.18;13.68;;;;;;;15.41;85.73;102509.22;5014204;28;20116;-72
2022/10/18 03:49:32;;;;;;;15.98;12.90;;;;;;;15.41;85.61;102500.81;5013144;28;20025;-72
2022/10/18 03:51:58;;;;;;;17.35;13.45;;;;;;;15.39;85.63;102491.78;5013090;28;20034;-72
2022/10/18 03:54:23;;;;;;;19.70;13.38;;;;;;;15.37;85.59;102494.00;5013194;28;20568;-72
2022/10/18 03:56:48;;;;;;;14.13;12.63;;;;;;;15.38;85.50;102490.09;5030129;28;20033;-72
2022/10/18 03:59:15;;;;;;;14.45;12.68;;;;;;;15.36;85.52;102495.06;5029522;28;20036;-72
2022/10/18 04:01:41;;;;;;;14.80;12.55;;;;;;;15.34;85.37;102480.50;5032677;28;20026;-72
2022/10/18 04:04:06;;;;;;;14.10;12.70;;;;;;;15.33;85.12;102486.34;5032241;28;20419;-72
2022/10/18 04:06:31;;;;;;;17.25;12.77;;;;;;;15.32;85.02;102493.03;5032309;28;20075;-72
2022/10/18 04:08:57;;;;;;;17.60;13.63;;;;;;;15.30;85.07;102489.63;5026969;28;20084;-72
2022/10/18 04:11:22;;;;;;;15.05;12.45;;;;;;;15.28;84.93;102483.41;5012036;28;20029;-71
2022/10/18 04:13:47;;;;;;;14.15;12.75;;;;;;;15.28;84.98;102487.06;5012818;28;20401;-71
2022/10/18 04:16:13;;;;;;;13.40;12.00;;;;;;;15.29;85.17;102485.13;5015180;28;20038;-73
2022/10/18 04:18:38;;;;;;;15.27;13.27;;;;;;;15.25;84.79;102497.88;5031200;28;20025;-72
2022/10/18 04:21:03;;;;;;;14.85;13.10;;;;;;;15.22;84.88;102488.06;5020678;28;20029;-73
2022/10/18 04:23:28;;;;;;;14.85;13.35;;;;;;;15.21;84.89;102489.16;5012292;28;20025;-72
2022/10/18 04:25:54;;;;;;;14.48;12.95;;;;;;;15.19;84.98;102496.94;5011574;28;20025;-72
2022/10/18 04:28:19;;;;;;;15.43;13.85;;;;;;;15.19;84.77;102499.72;5020976;28;20033;-73
2022/10/18 04:30:49;;;;;;;15.57;12.98;;;;;;;15.17;84.94;102494.41;5030905;28;20021;-72
2022/10/18 04:33:15;;;;;;;12.82;11.52;;;;;;;15.17;84.52;102507.53;5031318;28;20088;-73
2022/10/18 04:35:40;;;;;;;17.85;12.98;;;;;;;15.16;84.53;102501.06;5030273;28;20417;-73
2022/10/18 04:38:05;;;;;;;16.77;12.70;;;;;;;15.15;84.54;102499.38;5029386;28;20097;-73
2022/10/18 04:40:30;;;;;;;14.23;12.38;;;;;;;15.16;84.57;102501.06;5030426;28;20029;-73
2022/10/18 04:42:56;;;;;;;14.57;13.02;;;;;;;15.13;84.13;102518.34;5030314;28;20485;-73
2022/10/18 04:45:21;;;;;;;13.88;12.43;;;;;;;15.11;84.54;102503.75;5030609;28;20109;-72
2022/10/18 04:47:46;;;;;;;12.88;11.68;;;;;;;15.10;84.52;102501.22;5030693;28;20055;-72
2022/10/18 04:50:12;;;;;;;13.65;12.25;;;;;;;15.10;84.27;102496.47;5031270;28;20021;-73
2022/10/18 04:52:37;;;;;;;15.60;12.43;;;;;;;15.09;84.27;102502.28;5032971;28;20029;-73
2022/10/18 04:55:02;;;;;;;13.40;11.65;;;;;;;15.09;84.54;102505.06;5030551;28;20468;-73
2022/10/18 04:57:28;;;;;;;13.13;11.82;;;;;;;15.10;84.19;102520.78;5030931;28;20511;-73
2022/10/18 04:59:53;;;;;;;13.60;12.20;;;;;;;15.05;84.16;102513.13;5030908;28;20108;-73
2022/10/18 05:02:18;;;;;;;14.32;12.20;;;;;;;15.04;84.18;102513.34;5027669;28;20025;-72
2022/10/18 05:04:43;;;;;;;15.10;12.95;;;;;;;15.04;84.02;102514.19;5031161;28;20037;-73
2022/10/18 05:07:09;;;;;;;15.73;14.13;;;;;;;15.03;84.67;102504.13;5028541;28;20029;-73
2022/10/18 05:09:34;;;;;;;16.30;13.70;;;;;;;15.03;84.57;102511.66;5028387;28;20026;-72
2022/10/18 05:11:59;;;;;;;17.42;13.93;;;;;;;15.03;84.86;102508.84;5030595;28;20037;-72
2022/10/18 05:14:25;;;;;;;14.15;12.75;;;;;;;15.01;84.37;102513.81;5012805;28;20128;-73
2022/10/18 05:16:50;;;;;;;16.60;13.73;;;;;;;14.98;84.13;102516.03;5031710;28;20091;-73
2022/10/18 05:19:15;;;;;;;18.02;13.32;;;;;;;15.01;84.43;102513.81;5031670;28;20040;-75
2022/10/18 05:21:41;;;;;;;16.70;13.82;;;;;;;14.99;84.18;102511.28;5014047;28;20042;-72
2022/10/18 05:24:06;;;;;;;15.40;12.55;;;;;;;14.98;84.19;102527.22;5027085;28;20060;-73
2022/10/18 05:26:31;;;;;;;18.10;13.75;;;;;;;14.97;84.14;102528.31;5032444;28;20033;-75
2022/10/18 05:28:56;;;;;;;16.67;13.35;;;;;;;14.98;84.05;102530.00;5026321;28;20045;-75
2022/10/18 05:31:22;;;;;;;15.68;14.07;;;;;;;14.97;84.34;102531.13;5028933;28;20021;-73
2022/10/18 05:33:47;;;;;;;15.70;14.10;;;;;;;14.98;84.31;102530.00;5030564;28;20033;-74
2022/10/18 05:36:12;;;;;;;19.67;14.88;;;;;;;14.96;84.37;102540.56;5030513;28;20025;-75
2022/10/18 05:38:41;;;;;;;18.08;15.02;;;;;;;14.95;84.50;102538.88;5031684;28;20032;-74
2022/10/18 05:41:07;;;;;;;22.00;15.63;;;;;;;14.96;84.77;102528.53;5029991;28;20036;-75
2022/10/18 05:43:32;;;;;;;18.90;15.98;;;;;;;14.97;84.72;102528.31;5029855;28;20033;-73
2022/10/18 05:45:57;;;;;;;19.42;15.52;;;;;;;14.94;84.51;102528.78;5030298;28;20029;-75
2022/10/18 05:48:23;;;;;;;16.98;15.18;;;;;;;14.94;84.85;102522.34;5032891;28;20037;-73
2022/10/18 05:50:48;;;;;;;17.85;15.95;;;;;;;14.91;84.88;102526.47;5033754;28;20029;-72
2022/10/18 05:53:14;;;;;;;18.00;15.98;;;;;;;14.91;84.59;102537.66;5032928;28;20032;-71
2022/10/18 05:55:39;;;;;;;17.42;15.63;;;;;;;14.91;85.02;102536.81;5030620;28;20594;-72
2022/10/18 05:58:04;;;;;;;16.95;15.30;;;;;;;14.90;84.88;102533.16;5031755;28;20045;-73
2022/10/18 06:00:30;;;;;;;14.88;13.55;;;;;;;14.90;84.97;102535.97;5033193;28;20112;-72
2022/10/18 06:02:55;;;;;;;15.55;13.95;;;;;;;14.89;84.93;102538.97;5033055;28;20074;-74
2022/10/18 06:05:21;;;;;;;14.85;13.45;;;;;;;14.91;84.78;102548.84;5032800;28;20029;-74
2022/10/18 06:07:46;;;;;;;15.48;13.93;;;;;;;14.84;84.66;102550.88;5025317;28;20033;-74
2022/10/18 06:10:12;;;;;;;15.48;13.98;;;;;;;14.83;84.59;102552.00;5034057;28;20065;-73
2022/10/18 06:12:37;;;;;;;15.70;14.15;;;;;;;14.82;84.47;102549.44;5028492;28;20076;-75
2022/10/18 06:15:03;;;;;;;14.85;13.35;;;;;;;14.80;84.40;102552.47;5020265;28;20049;-77
2022/10/18 06:17:28;;;;;;;15.32;13.82;;;;;;;14.80;84.40;102551.63;5012598;28;20485;-76
2022/10/18 06:19:54;;;;;;;14.85;13.40;;;;;;;14.79;84.27;102550.78;5014327;28;20667;-76
2022/10/18 06:22:19;;;;;;;14.88;13.48;;;;;;;14.81;84.39;102556.09;5021497;28;20029;-73
2022/10/18 06:24:44;;;;;;;15.02;13.73;;;;;;;14.77;83.93;102555.72;5029307;28;20079;-73
2022/10/18 06:27:09;;;;;;;14.88;13.38;;;;;;;14.77;84.22;102560.47;5029385;28;20026;-73
2022/10/18 06:29:35;;;;;;;17.75;13.80;;;;;;;14.75;84.23;102562.69;5033943;28;20029;-76
2022/10/18 06:32:01;;;;;;;14.45;13.15;;;;;;;14.76;84.24;102561.56;5021659;28;20045;-83
2022/10/18 06:34:26;;;;;;;14.95;13.55;;;;;;;14.77;84.39;102568.84;5029751;28;20053;-73
2022/10/18 06:36:51;;;;;;;13.98;12.27;;;;;;;14.94;88.50;102579.13;5029873;28;20459;-76
2022/10/18 06:39:17;;;;;;;15.00;13.60;;;;;;;14.95;86.39;102580.81;5025993;28;20029;-73
2022/10/18 06:41:42;;;;;;;14.38;12.98;;;;;;;15.01;86.00;102580.94;5028072;28;20465;-73
2022/10/18 06:44:12;;;;;;;7.78;7.00;;;;;;;15.29;88.67;102572.72;5022601;28;20048;-74
2022/10/18 06:46:42;;;;;;;16.08;14.38;;;;;;;15.19;84.88;102576.09;5025576;28;20045;-76
2022/10/18 06:49:08;;;;;;;13.73;12.43;;;;;;;15.31;85.03;102576.09;5024666;28;20556;-77
2022/10/18 06:51:33;;;;;;;14.68;13.27;;;;;;;15.31;84.29;102576.09;5030972;28;20112;-72
2022/10/18 06:53:58;;;;;;;15.45;13.95;;;;;;;15.29;84.00;102583.91;5022660;28;20108;-71
2022/10/18 06:56:23;;;;;;;15.35;13.73;;;;;;;15.30;83.78;102588.41;5031170;28;20535;-70
2022/10/18 06:58:49;;;;;;;15.55;14.05;;;;;;;15.29;83.53;102602.59;5030447;28;20040;-69
2022/10/18 07:01:16;;;;;;;15.93;13.82;;;;;;;15.25;83.53;102610.66;5022849;28;20117;-71
2022/10/18 07:03:42;;;;;;;15.10;13.57;;;;;;;15.30;83.73;102607.97;5027075;28;20033;-71
2022/10/18 07:06:10;;;;;;;16.15;14.65;;;;;;;15.23;83.58;102604.44;5025683;28;20044;-70
2022/10/18 07:08:35;;;;;;;17.15;14.07;;;;;;;15.14;83.42;102612.34;5028346;28;20037;-71
2022/10/18 07:11:01;;;;;;;16.15;14.65;;;;;;;15.09;83.69;102614.13;5030771;28;20040;-77
2022/10/18 07:13:31;;;;;;;15.13;13.82;;;;;;;15.04;83.92;102623.25;5029216;28;20033;-71
2022/10/18 07:16:05;;;;;;;15.40;13.93;;;;;;;15.00;83.98;102627.63;5026987;28;20045;-72
2022/10/18 07:18:35;;;;;;;16.48;14.80;;;;;;;14.96;84.23;102618.00;5025158;28;20120;-72
2022/10/18 07:21:05;;;;;;;17.45;15.60;;;;;;;14.95;84.44;102617.16;5027265;28;20114;-70
2022/10/18 07:23:32;;;;;;;20.05;17.00;;;;;;;14.94;84.48;102623.84;5026899;28;20661;-70
2022/10/18 07:25:58;;;;;;;18.98;17.08;;;;;;;14.95;84.91;102624.72;5027237;28;20025;-68
2022/10/18 07:28:24;;;;;;;18.88;16.85;;;;;;;14.95;84.80;102647.94;5026617;28;20048;-71
2022/10/18 07:30:49;;;;;;;18.65;16.70;;;;;;;14.98;84.89;102638.22;5025242;28;20037;-68
2022/10/18 07:33:14;;;;;;;20.95;18.15;;;;;;;14.95;84.89;102636.75;5027879;28;20080;-68
2022/10/18 07:35:40;;;;;;;23.33;17.25;;;;;;;14.95;85.37;102645.13;5032478;28;20476;-68
2022/10/18 07:38:05;;;;;;;24.00;18.17;;;;;;;15.00;85.16;102651.94;5030893;28;20022;-70
2022/10/18 07:40:30;;;;;;;22.80;18.38;;;;;;;15.02;85.18;102655.38;5029796;28;20029;-67
2022/10/18 07:42:55;;;;;;;28.05;19.48;;;;;;;15.00;85.45;102657.53;5028736;28;20024;-67
2022/10/18 07:45:21;;;;;;;29.42;20.58;;;;;;;15.01;85.46;102662.03;5029270;28;20090;-67
2022/10/18 07:47:46;;;;;;;24.92;19.63;;;;;;;15.02;85.44;102669.34;5019874;28;20804;-68
2022/10/18 07:50:11;;;;;;;30.08;18.40;;;;;;;15.01;86.04;102670.41;5026590;28;20386;-69
2022/10/18 07:52:39;;;;;;;24.30;17.05;;;;;;;15.04;85.57;102681.13;5028578;28;20071;-68
2022/10/18 07:55:05;;;;;;;24.23;17.35;;;;;;;15.01;85.31;102685.25;5026668;28;20044;-68
2022/10/18 07:57:30;;;;;;;25.48;17.20;;;;;;;15.05;85.34;102689.31;5022425;28;20033;-76
2022/10/18 07:59:56;;;;;;;23.80;17.85;;;;;;;15.04;85.46;102687.56;5021347;28;20038;-67
2022/10/18 08:02:24;;;;;;;23.25;16.90;;;;;;;15.10;85.39;102695.03;5025952;28;20042;-67
2022/10/18 08:04:50;;;;;;;24.13;17.85;;;;;;;15.09;85.25;102695.25;5028070;28;20480;-68
2022/10/18 08:07:15;;;;;;;23.92;17.58;;;;;;;15.10;85.38;102700.63;5028508;28;20105;-68
2022/10/18 08:09:40;;;;;;;24.35;17.02;;;;;;;15.12;84.84;102708.75;5029836;28;20160;-66
2022/10/18 08:12:06;;;;;;;24.55;17.95;;;;;;;15.14;84.81;102715.00;5029004;28;20025;-68
2022/10/18 08:14:31;;;;;;;24.13;17.38;;;;;;;15.14;85.18;102715.00;5031965;28;20090;-67
2022/10/18 08:16:56;;;;;;;25.55;17.35;;;;;;;15.13;85.15;102714.13;5030929;28;20492;-71
2022/10/18 08:19:21;;;;;;;24.63;16.55;;;;;;;15.13;84.98;102718.84;5024569;28;20029;-67
2022/10/18 08:21:47;;;;;;;24.88;17.08;;;;;;;15.16;84.86;102713.63;5031739;28;20025;-69
2022/10/18 08:24:12;;;;;;;26.30;17.80;;;;;;;15.15;84.80;102728.72;5026138;28;20017;-68
2022/10/18 08:26:37;;;;;;;26.63;17.70;;;;;;;15.18;84.74;102722.66;5022343;28;20492;-67
2022/10/18 08:29:03;;;;;;;26.33;17.77;;;;;;;15.20;84.72;102722.41;5021331;28;20033;-68
2022/10/18 08:31:28;;;;;;;27.80;17.23;;;;;;;15.23;84.75;102730.31;5027297;28;20430;-66
2022/10/18 08:33:55;;;;;;;23.92;16.70;;;;;;;15.26;84.42;102735.44;5028765;28;20032;-67
2022/10/18 08:36:21;;;;;;;25.30;16.83;;;;;;;15.31;84.36;102740.31;5028912;28;20567;-67
2022/10/18 08:38:48;;;;;;;24.30;17.90;;;;;;;15.33;84.43;102735.34;5019581;28;20037;-71
2022/10/18 08:41:22;;;;;;;23.85;16.65;;;;;;;15.37;84.53;102745.81;5021781;28;20037;-72
2022/10/18 08:44:03;;;;;;;21.30;16.33;;;;;;;15.42;84.34;102736.72;5024530;28;20029;-70
2022/10/18 08:46:31;;;;;;;26.08;16.65;;;;;;;15.45;83.80;102736.25;5027280;28;20041;-73
2022/10/18 08:48:58;;;;;;;30.38;17.52;;;;;;;15.45;83.27;102739.03;5025594;28;20029;-71
2022/10/18 08:51:32;;;;;;;25.83;17.15;;;;;;;15.55;83.69;102749.63;5028927;28;20079;-69
2022/10/18 08:54:12;;;;;;;24.73;17.73;;;;;;;15.57;83.59;102745.50;5016570;28;20033;-68
2022/10/18 08:56:41;;;;;;;31.75;17.27;;;;;;;15.60;83.23;102735.75;5029011;28;20399;-67
2022/10/18 08:59:11;;;;;;;26.85;18.00;;;;;;;15.67;83.32;102742.97;5028036;28;20075;-69
2022/10/18 09:01:42;;;;;;;27.75;17.95;;;;;;;15.71;83.07;102755.41;5029203;28;20060;-71
2022/10/18 09:04:29;;;;;;;27.52;18.05;;;;;;;15.75;83.09;102758.56;5028819;28;20037;-71
2022/10/18 09:07:22;;;;;;;26.13;18.45;;;;;;;15.75;83.26;102746.53;5030046;28;20021;-68
2022/10/18 09:10:08;;;;;;;26.60;17.88;;;;;;;15.80;82.74;102741.91;5028067;28;20120;-68
2022/10/18 09:12:48;;;;;;;26.35;18.25;;;;;;;15.86;82.20;102746.53;5009251;28;20179;-70
2022/10/18 09:15:29;;;;;;;28.35;17.80;;;;;;;15.93;82.34;102752.88;5023096;28;20045;-69
2022/10/18 09:18:15;;;;;;;24.50;17.25;;;;;;;16.01;81.30;102753.63;5026745;28;20042;-69
2022/10/18 09:20:57;;;;;;;25.58;17.48;;;;;;;16.16;81.47;102749.22;5029236;28;20040;-69
2022/10/18 09:23:48;;;;;;;24.63;16.25;;;;;;;16.29;80.74;102750.06;5027210;28;21779;-70
2022/10/18 09:26:24;;;;;;;25.88;16.73;;;;;;;16.40;80.00;102750.03;5029630;28;20026;-69
2022/10/18 09:29:16;;;;;;;24.35;16.73;;;;;;;16.57;80.19;102749.28;5025414;28;20384;-70
2022/10/18 09:32:03;;;;;;;27.63;17.23;;;;;;;16.72;80.33;102738.38;5023362;28;20106;-69
2022/10/18 09:34:40;;;;;;;22.75;15.07;;;;;;;16.79;77.76;102739.13;5027353;28;20062;-69
2022/10/18 09:37:12;;;;;;;21.85;15.02;;;;;;;16.90;76.68;102751.41;5028493;28;20037;-68
2022/10/18 09:39:38;;;;;;;22.17;13.88;;;;;;;17.02;76.82;102752.22;5030058;28;20037;-69
2022/10/18 09:42:12;;;;;;;22.58;14.07;;;;;;;17.08;75.38;102751.19;5019296;28;20029;-68
2022/10/18 09:44:40;;;;;;;24.33;21.73;;;;;;;17.16;74.51;102745.19;5024905;28;20380;-68
2022/10/18 09:47:14;;;;;;;21.67;17.02;;;;;;;17.22;74.22;102751.75;5029869;28;20022;-68
2022/10/18 09:49:44;;;;;;;20.08;13.50;;;;;;;17.29;74.11;102760.88;5026972;28;20030;-68
2022/10/18 09:52:19;;;;;;;22.25;12.23;;;;;;;17.41;74.12;102764.47;5028593;28;20014;-70
2022/10/18 09:54:59;;;;;;;19.75;12.93;;;;;;;17.51;74.87;102768.56;5029243;28;20032;-68
2022/10/18 09:57:56;;;;;;;24.88;13.48;;;;;;;17.59;75.43;102765.34;5028626;28;20068;-68
2022/10/18 10:00:28;;;;;;;22.35;12.48;;;;;;;17.62;73.54;102751.63;5013071;28;20448;-69
2022/10/18 10:02:53;;;;;;;21.10;12.32;;;;;;;17.73;73.84;102746.22;5009564;28;20034;-68
2022/10/18 10:05:19;;;;;;;19.95;10.98;;;;;;;17.76;72.01;102745.69;5010630;28;20092;-68
2022/10/18 10:07:46;;;;;;;20.42;10.25;;;;;;;17.79;71.23;102748.84;5010197;28;20072;-68
2022/10/18 10:10:29;;;;;;;17.92;9.68;;;;;;;17.86;71.87;102743.91;5013173;28;20540;-68
2022/10/18 10:13:21;;;;;;;18.38;9.52;;;;;;;17.89;72.36;102746.22;5017777;28;20040;-69
2022/10/18 10:16:00;;;;;;;19.15;8.57;;;;;;;17.97;71.00;102747.75;5024655;28;20038;-69
2022/10/18 10:18:35;;;;;;;13.35;6.95;;;;;;;17.98;69.75;102746.63;5028893;28;20524;-69
2022/10/18 10:21:04;;;;;;;18.27;7.75;;;;;;;18.05;68.40;102752.09;5012233;28;20042;-69
2022/10/18 10:23:54;;;;;;;15.68;7.70;;;;;;;18.12;71.01;102745.19;5024983;28;20033;-68
2022/10/18 10:26:37;;;;;;;16.23;8.27;;;;;;;18.19;69.93;102755.38;5018903;28;20069;-69
2022/10/18 10:29:23;;;;;;;15.23;8.32;;;;;;;18.23;68.32;102748.97;5026578;28;20091;-69
2022/10/18 10:32:01;;;;;;;16.63;7.40;;;;;;;18.26;68.67;102751.28;5027050;28;20061;-70
2022/10/18 10:34:28;;;;;;;15.57;6.85;;;;;;;18.30;67.53;102757.22;5026276;28;20025;-74
2022/10/18 10:36:54;;;;;;;13.60;6.00;;;;;;;18.36;66.70;102757.06;5029453;28;20044;-74
2022/10/18 10:39:22;;;;;;;14.30;6.60;;;;;;;18.35;66.46;102760.09;5027220;28;20029;-67
2022/10/18 10:41:50;;;;;;;17.10;5.78;;;;;;;18.44;64.68;102777.41;5031017;28;20037;-68
2022/10/18 10:44:18;;;;;;;16.83;6.43;;;;;;;18.45;64.84;102773.47;5026807;28;20485;-70
2022/10/18 10:46:44;;;;;;;18.67;7.63;;;;;;;18.55;65.82;102784.84;5027311;28;20436;-68
2022/10/18 10:49:20;;;;;;;16.42;6.80;;;;;;;18.59;66.21;102777.63;5024760;28;20026;-71
2022/10/18 10:51:53;;;;;;;14.20;4.97;;;;;;;18.69;65.36;102790.97;5032360;28;20123;-71
2022/10/18 10:54:22;;;;;;;10.95;4.05;;;;;;;18.71;62.89;102784.00;5020791;28;20045;-71
2022/10/18 10:56:57;;;;;;;17.33;4.00;;;;;;;18.74;63.46;102771.34;5029152;28;20499;-68
2022/10/18 10:59:25;;;;;;;14.77;4.43;;;;;;;18.77;62.32;102773.66;5030130;28;20029;-75
2022/10/18 11:02:10;;;;;;;17.67;5.45;;;;;;;18.79;64.90;102780.72;5029608;28;20063;-71
2022/10/18 11:04:37;;;;;;;15.35;5.53;;;;;;;18.79;62.83;102780.72;5030066;28;20037;-69
2022/10/18 11:07:08;;;;;;;15.10;5.13;;;;;;;18.83;63.95;102779.09;5030516;28;20053;-69
2022/10/18 11:09:57;;;;;;;14.43;4.78;;;;;;;18.88;64.81;102781.13;5032154;28;20043;-71
2022/10/18 11:12:45;;;;;;;12.02;4.53;;;;;;;18.94;63.25;102779.19;5028021;28;20093;-71
2022/10/18 11:15:19;;;;;;;13.48;3.90;;;;;;;18.98;63.61;102788.81;5026713;28;20044;-71
2022/10/18 11:18:03;;;;;;;10.73;3.88;;;;;;;18.95;64.18;102783.72;5029722;28;20052;-71
2022/10/18 11:20:37;;;;;;;8.75;3.83;;;;;;;18.98;61.69;102788.81;5025859;28;20029;-71
2022/10/18 11:23:06;;;;;;;11.93;4.07;;;;;;;19.00;61.07;102786.59;5030132;28;20492;-72